createdAt,value
2023-04-04T00:00:31.983Z,1.37
2023-04-04T00:02:57.783Z,1.97
2023-04-04T00:05:23.607Z,1.37
2023-04-04T00:07:49.355Z,1.30
2023-04-04T00:10:15.389Z,1.20
2023-04-04T00:12:41.472Z,1.97
2023-04-04T00:15:07.403Z,1.23
2023-04-04T00:17:33.177Z,1.50
2023-04-04T00:19:58.943Z,1.23
2023-04-04T00:22:24.648Z,1.57
2023-04-04T00:24:50.891Z,0.97
2023-04-04T00:27:16.621Z,1.20
2023-04-04T00:29:42.397Z,2.23
2023-04-04T00:32:08.161Z,1.43
2023-04-04T00:34:35.716Z,1.50
2023-04-04T00:37:01.676Z,1.83
2023-04-04T00:39:27.691Z,1.40
2023-04-04T00:41:53.531Z,1.70
2023-04-04T00:44:19.262Z,1.27
2023-04-04T00:46:45.310Z,1.30
2023-04-04T00:49:11.083Z,1.30
2023-04-04T00:51:36.803Z,1.43
2023-04-04T00:54:02.963Z,1.47
2023-04-04T00:56:29.993Z,1.80
2023-04-04T00:58:56.572Z,1.60
2023-04-04T01:01:24.657Z,1.80
2023-04-04T01:03:51.103Z,2.50
2023-04-04T01:06:16.919Z,1.50
2023-04-04T01:08:42.953Z,2.10
2023-04-04T01:11:09.362Z,1.20
2023-04-04T01:13:35.129Z,1.77
2023-04-04T01:16:01.095Z,1.40
2023-04-04T01:18:27.247Z,1.17
2023-04-04T01:21:04.880Z,1.63
2023-04-04T01:23:48.856Z,2.10
2023-04-04T01:26:14.598Z,1.60
2023-04-04T01:28:40.458Z,3.00
2023-04-04T01:31:07.049Z,4.07
2023-04-04T01:33:46.383Z,1.70
2023-04-04T01:36:17.066Z,2.00
2023-04-04T01:38:52.019Z,2.10
2023-04-04T01:41:19.809Z,1.47
2023-04-04T01:43:48.545Z,1.70
2023-04-04T01:46:16.570Z,1.33
2023-04-04T01:48:42.527Z,2.07
2023-04-04T01:51:08.385Z,1.70
2023-04-04T01:53:34.146Z,1.50
2023-04-04T01:56:00.741Z,1.93
2023-04-04T01:58:26.774Z,1.70
2023-04-04T02:00:52.568Z,1.70
2023-04-04T02:03:18.353Z,3.10
2023-04-04T02:05:44.127Z,1.73
2023-04-04T02:08:09.928Z,2.60
2023-04-04T02:10:35.647Z,2.17
2023-04-04T02:13:01.385Z,1.80
2023-04-04T02:15:27.116Z,1.73
2023-04-04T02:17:53.090Z,1.90
2023-04-04T02:20:19.645Z,1.70
2023-04-04T02:22:52.981Z,2.37
2023-04-04T02:25:19.310Z,1.70
2023-04-04T02:27:45.005Z,1.83
2023-04-04T02:30:11.103Z,2.53
2023-04-04T02:32:37.547Z,1.57
2023-04-04T02:35:03.725Z,2.03
2023-04-04T02:37:29.959Z,1.97
2023-04-04T02:39:55.651Z,2.83
2023-04-04T02:42:21.395Z,1.60
2023-04-04T02:44:47.126Z,2.07
2023-04-04T02:47:12.981Z,2.77
2023-04-04T02:49:38.866Z,1.70
2023-04-04T02:52:04.605Z,2.60
2023-04-04T02:54:30.310Z,1.90
2023-04-04T02:56:56.126Z,2.40
2023-04-04T02:59:21.856Z,2.37
2023-04-04T03:01:47.668Z,2.07
2023-04-04T03:04:13.544Z,3.17
2023-04-04T03:06:40.692Z,2.33
2023-04-04T03:09:06.654Z,2.80
2023-04-04T03:11:32.453Z,4.10
2023-04-04T03:13:58.228Z,2.00
2023-04-04T03:16:25.152Z,1.87
2023-04-04T03:18:50.973Z,1.97
2023-04-04T03:21:16.727Z,2.30
2023-04-04T03:23:42.492Z,1.90
2023-04-04T03:26:08.363Z,2.03
2023-04-04T03:28:34.063Z,2.17
2023-04-04T03:31:03.601Z,2.07
2023-04-04T03:33:29.376Z,2.07
2023-04-04T03:35:55.327Z,2.60
2023-04-04T03:38:21.097Z,2.33
2023-04-04T03:40:46.817Z,2.53
2023-04-04T03:43:12.523Z,2.50
2023-04-04T03:45:38.620Z,2.10
2023-04-04T03:48:04.514Z,2.20
2023-04-04T03:50:30.884Z,2.40
2023-04-04T03:52:57.780Z,2.93
2023-04-04T03:55:23.691Z,2.53
2023-04-04T03:57:49.463Z,2.70
2023-04-04T04:00:15.876Z,2.27
2023-04-04T04:02:41.770Z,2.23
2023-04-04T04:05:08.502Z,1.93
2023-04-04T04:07:34.297Z,2.27
2023-04-04T04:10:00.102Z,2.70
2023-04-04T04:12:26.580Z,2.50
2023-04-04T04:14:52.450Z,2.53
2023-04-04T04:17:18.224Z,2.50
2023-04-04T04:19:44.004Z,2.87
2023-04-04T04:22:09.899Z,2.43
2023-04-04T04:24:36.170Z,2.30
2023-04-04T04:27:01.954Z,2.63
2023-04-04T04:29:28.505Z,3.33
2023-04-04T04:31:55.918Z,3.33
2023-04-04T04:34:22.016Z,2.50
2023-04-04T04:36:48.261Z,2.73
2023-04-04T04:39:14.093Z,1.67
2023-04-04T04:41:39.872Z,2.70
2023-04-04T04:44:06.119Z,3.40
2023-04-04T04:46:38.440Z,2.70
2023-04-04T04:49:04.791Z,2.70
2023-04-04T04:51:30.638Z,2.80
2023-04-04T04:53:56.635Z,3.13
2023-04-04T04:56:22.707Z,3.37
2023-04-04T04:58:50.419Z,4.43
2023-04-04T05:01:16.287Z,4.27
2023-04-04T05:03:42.145Z,3.70
2023-04-04T05:06:07.970Z,3.03
2023-04-04T05:08:33.719Z,2.50
2023-04-04T05:10:59.474Z,2.93
2023-04-04T05:13:25.328Z,2.13
2023-04-04T05:15:51.075Z,2.97
2023-04-04T05:18:16.853Z,2.20
2023-04-04T05:20:43.006Z,2.77
2023-04-04T05:23:08.914Z,2.00
2023-04-04T05:25:34.658Z,2.25
2023-04-04T05:28:00.793Z,2.33
2023-04-04T05:30:26.741Z,2.47
2023-04-04T05:32:52.946Z,3.38
2023-04-04T05:35:19.158Z,2.42
2023-04-04T05:37:45.016Z,2.70
2023-04-04T05:40:11.211Z,2.35
2023-04-04T05:42:37.064Z,2.58
2023-04-04T05:45:03.151Z,3.08
2023-04-04T05:47:29.013Z,2.67
2023-04-04T05:49:55.553Z,3.08
2023-04-04T05:52:21.564Z,3.10
2023-04-04T05:54:47.710Z,2.30
2023-04-04T05:57:14.148Z,2.95
2023-04-04T05:59:40.042Z,2.90
2023-04-04T06:02:07.123Z,3.00
2023-04-04T06:04:34.077Z,2.90
2023-04-04T06:07:00.481Z,3.03
2023-04-04T06:09:27.318Z,2.87
2023-04-04T06:11:53.628Z,2.63
2023-04-04T06:14:19.435Z,4.03
2023-04-04T06:16:46.970Z,3.37
2023-04-04T06:19:12.772Z,2.80
2023-04-04T06:21:38.553Z,3.23
2023-04-04T06:24:04.502Z,2.90
2023-04-04T06:26:30.624Z,3.07
2023-04-04T06:28:57.555Z,2.43
2023-04-04T06:31:23.446Z,2.63
2023-04-04T06:33:49.376Z,2.63
2023-04-04T06:36:15.379Z,3.87
2023-04-04T06:38:41.572Z,2.90
2023-04-04T06:41:07.605Z,2.90
2023-04-04T06:43:33.426Z,2.50
2023-04-04T06:45:59.358Z,2.40
2023-04-04T06:48:25.214Z,2.40
2023-04-04T06:50:51.298Z,2.90
2023-04-04T06:53:17.184Z,2.37
2023-04-04T06:55:43.010Z,2.80
2023-04-04T06:58:08.950Z,2.97
2023-04-04T07:00:35.161Z,2.37
2023-04-04T07:03:02.184Z,2.83
2023-04-04T07:05:29.009Z,2.20
2023-04-04T07:07:56.404Z,2.10
2023-04-04T07:10:22.971Z,2.00
2023-04-04T07:12:49.995Z,2.30
2023-04-04T07:15:17.323Z,2.07
2023-04-04T07:17:43.247Z,2.63
2023-04-04T07:20:09.722Z,1.40
2023-04-04T07:22:42.985Z,1.40
2023-04-04T07:25:09.048Z,1.70
2023-04-04T07:27:36.211Z,1.70
2023-04-04T07:30:02.813Z,1.33
2023-04-04T07:32:29.943Z,1.23
2023-04-04T07:34:55.986Z,2.57
2023-04-04T07:37:22.756Z,1.77
2023-04-04T07:39:49.468Z,1.63
2023-04-04T07:42:16.473Z,1.53
2023-04-04T07:44:42.284Z,1.20
2023-04-04T07:47:13.539Z,1.40
2023-04-04T07:49:39.357Z,1.30
2023-04-04T07:52:06.262Z,1.77
2023-04-04T07:54:32.110Z,1.50
2023-04-04T07:56:57.958Z,1.40
2023-04-04T07:59:24.221Z,1.60
2023-04-04T08:01:50.520Z,1.33
2023-04-04T08:04:16.514Z,1.40
2023-04-04T08:06:42.922Z,1.60
2023-04-04T08:09:09.074Z,1.60
2023-04-04T08:11:35.072Z,1.80
2023-04-04T08:14:01.463Z,1.67
2023-04-04T08:16:33.446Z,1.20
2023-04-04T08:19:00.118Z,1.33
2023-04-04T08:21:27.004Z,1.17
2023-04-04T08:23:52.857Z,1.67
2023-04-04T08:26:18.643Z,1.30
2023-04-04T08:28:44.906Z,1.47
2023-04-04T08:31:12.032Z,1.43
2023-04-04T08:36:10.275Z,1.10
2023-04-04T08:38:36.255Z,1.20
2023-04-04T08:41:02.372Z,0.93
2023-04-04T08:43:32.237Z,1.10
2023-04-04T08:46:03.599Z,2.13
2023-04-04T08:48:30.308Z,1.77
2023-04-04T08:50:59.118Z,1.37
2023-04-04T08:53:26.088Z,1.30
2023-04-04T08:55:53.650Z,1.40
2023-04-04T08:58:19.688Z,1.48
2023-04-04T09:00:45.524Z,2.15
2023-04-04T09:03:12.457Z,1.20
2023-04-04T09:05:38.624Z,1.60
2023-04-04T09:08:06.531Z,1.10
2023-04-04T09:10:32.637Z,1.95
2023-04-04T09:13:12.498Z,1.55
2023-04-04T09:15:56.707Z,1.30
2023-04-04T09:18:22.681Z,1.88
2023-04-04T09:20:50.514Z,2.10
2023-04-04T09:23:19.703Z,1.48
2023-04-04T09:25:56.356Z,1.52
2023-04-04T09:28:27.459Z,1.00
2023-04-04T09:30:53.423Z,1.00
2023-04-04T09:33:21.008Z,1.42
2023-04-04T09:35:54.850Z,0.98
2023-04-04T09:38:22.732Z,1.23
2023-04-04T09:40:49.088Z,1.38
2023-04-04T09:43:16.504Z,1.08
2023-04-04T09:45:49.287Z,1.17
2023-04-04T09:48:31.765Z,2.00
2023-04-04T09:51:00.752Z,1.10
2023-04-04T09:53:27.306Z,1.15
2023-04-04T09:55:54.167Z,1.13
2023-04-04T09:58:24.300Z,1.13
2023-04-04T10:00:52.109Z,1.40
2023-04-04T10:03:21.133Z,1.25
2023-04-04T10:05:48.011Z,1.50
2023-04-04T10:08:15.728Z,0.93
2023-04-04T10:10:46.530Z,0.90
2023-04-04T10:13:12.938Z,0.82
2023-04-04T10:15:39.073Z,0.65
2023-04-04T10:18:05.206Z,1.20
2023-04-04T10:20:32.561Z,1.02
2023-04-04T10:22:59.638Z,0.98
2023-04-04T10:25:28.439Z,1.58
2023-04-04T10:27:54.397Z,0.95
2023-04-04T10:30:21.137Z,1.30
2023-04-04T10:32:57.060Z,1.40
2023-04-04T10:35:25.131Z,1.20
2023-04-04T10:37:57.961Z,0.95
2023-04-04T10:40:25.673Z,1.20
2023-04-04T10:42:53.138Z,1.30
2023-04-04T10:45:21.635Z,1.13
2023-04-04T10:48:03.656Z,0.95
2023-04-04T10:50:35.490Z,1.00
2023-04-04T10:53:03.055Z,2.25
2023-04-04T10:55:29.355Z,1.00
2023-04-04T10:57:56.314Z,0.90
2023-04-04T11:00:25.890Z,0.90
2023-04-04T11:02:59.323Z,1.30
2023-04-04T11:05:26.567Z,1.48
2023-04-04T11:08:07.308Z,0.90
2023-04-04T11:10:41.624Z,0.98
2023-04-04T11:13:13.277Z,0.70
2023-04-04T11:15:59.839Z,1.05
2023-04-04T11:18:34.004Z,0.70
2023-04-04T11:21:05.055Z,1.25
2023-04-04T11:23:51.410Z,1.27
2023-04-04T11:26:27.369Z,0.95
2023-04-04T11:28:57.244Z,0.80
2023-04-04T11:31:27.388Z,1.30
2023-04-04T11:34:05.655Z,0.93
2023-04-04T11:36:35.395Z,1.33
2023-04-04T11:39:03.380Z,1.20
2023-04-04T11:41:49.562Z,0.80
2023-04-04T11:44:15.841Z,0.77
2023-04-04T11:46:55.337Z,0.90
2023-04-04T11:49:25.982Z,0.85
2023-04-04T11:51:52.099Z,0.73
2023-04-04T11:54:17.966Z,1.17
2023-04-04T11:56:44.873Z,0.75
2023-04-04T11:59:20.823Z,1.50
2023-04-04T12:01:49.156Z,0.93
2023-04-04T12:04:19.309Z,0.70
2023-04-04T12:06:57.025Z,0.90
2023-04-04T12:09:25.150Z,1.40
2023-04-04T12:11:51.385Z,0.98
2023-04-04T12:14:21.454Z,0.70
2023-04-04T12:16:48.362Z,0.85
2023-04-04T12:19:14.770Z,1.00
2023-04-04T12:21:43.928Z,1.73
2023-04-04T12:24:11.862Z,0.98
2023-04-04T12:26:38.800Z,0.90
2023-04-04T12:29:06.002Z,1.15
2023-04-04T12:31:32.185Z,1.00
2023-04-04T12:33:59.734Z,2.28
2023-04-04T12:36:26.038Z,0.93
2023-04-04T12:38:57.358Z,0.93
2023-04-04T12:41:23.402Z,0.95
2023-04-04T12:43:49.321Z,0.90
2023-04-04T12:46:17.660Z,0.70
2023-04-04T12:48:44.228Z,1.30
2023-04-04T12:51:10.799Z,1.20
2023-04-04T12:53:50.472Z,0.90
2023-04-04T12:56:16.477Z,1.15
2023-04-04T12:58:47.224Z,0.90
2023-04-04T13:01:15.354Z,0.73
2023-04-04T13:03:41.363Z,0.80
2023-04-04T13:06:10.817Z,1.40
2023-04-04T13:08:37.156Z,1.15
2023-04-04T13:11:05.350Z,0.80
2023-04-04T13:13:32.867Z,0.80
2023-04-04T13:16:03.133Z,0.95
2023-04-04T13:18:37.565Z,0.77
2023-04-04T13:21:04.446Z,0.85
2023-04-04T13:23:31.022Z,0.82
2023-04-04T13:25:59.117Z,1.05
2023-04-04T13:28:26.190Z,0.63
2023-04-04T13:30:53.174Z,1.38
2023-04-04T13:33:19.273Z,1.00
2023-04-04T13:35:45.713Z,0.85
2023-04-04T13:38:12.872Z,1.25
2023-04-04T13:40:39.183Z,0.98
2023-04-04T13:43:05.463Z,1.15
2023-04-04T13:45:32.624Z,1.15
2023-04-04T13:48:14.120Z,0.80
2023-04-04T13:50:41.482Z,1.92
2023-04-04T13:53:11.864Z,1.38
2023-04-04T13:55:39.014Z,0.73
2023-04-04T13:58:05.989Z,0.85
2023-04-04T14:00:33.145Z,1.13
2023-04-04T14:02:59.045Z,1.50
2023-04-04T14:05:28.648Z,1.20
2023-04-04T14:07:54.761Z,0.88
2023-04-04T14:10:21.060Z,0.88
2023-04-04T14:12:47.336Z,0.90
2023-04-04T14:15:14.399Z,1.17
2023-04-04T14:17:43.502Z,0.68
2023-04-04T14:20:10.082Z,1.00
2023-04-04T14:22:36.717Z,0.75
2023-04-04T14:25:04.055Z,1.10
2023-04-04T14:27:31.352Z,1.38
2023-04-04T14:29:57.313Z,1.27
2023-04-04T14:32:24.866Z,1.08
2023-04-04T14:34:51.534Z,0.85
2023-04-04T14:37:17.394Z,0.88
2023-04-04T14:39:43.694Z,0.90
2023-04-04T14:42:09.605Z,0.80
2023-04-04T14:44:35.893Z,1.42
2023-04-04T14:47:14.963Z,0.93
2023-04-04T14:49:42.449Z,0.77
2023-04-04T14:52:09.242Z,0.95
2023-04-04T14:54:37.799Z,0.70
2023-04-04T14:57:03.593Z,0.95
2023-04-04T14:59:32.813Z,1.88
2023-04-04T15:01:59.154Z,0.88
2023-04-04T15:04:25.263Z,0.80
2023-04-04T15:06:51.462Z,1.02
2023-04-04T15:09:17.449Z,1.00
2023-04-04T15:11:43.740Z,1.00
2023-04-04T15:14:10.257Z,1.00
2023-04-04T15:16:37.333Z,0.90
2023-04-04T15:19:03.428Z,1.05
2023-04-04T15:21:29.418Z,0.90
2023-04-04T15:23:55.721Z,1.00
2023-04-04T15:26:22.296Z,1.08
2023-04-04T15:28:49.688Z,0.95
2023-04-04T15:31:16.142Z,1.17
2023-04-04T15:33:42.320Z,0.88
2023-04-04T15:36:08.163Z,1.20
2023-04-04T15:38:35.368Z,1.00
2023-04-04T15:41:01.930Z,1.25
2023-04-04T15:43:30.917Z,0.88
2023-04-04T15:46:00.407Z,0.80
2023-04-04T15:48:26.397Z,0.80
2023-04-04T15:50:57.714Z,1.05
2023-04-04T15:53:24.747Z,1.23
2023-04-04T15:55:54.241Z,1.17
2023-04-04T15:58:20.112Z,1.48
2023-04-04T16:00:49.481Z,1.20
2023-04-04T16:03:15.513Z,0.90
2023-04-04T16:05:41.773Z,0.93
2023-04-04T16:08:08.347Z,0.85
2023-04-04T16:10:34.889Z,1.10
2023-04-04T16:13:00.883Z,0.60
2023-04-04T16:15:26.840Z,0.43
2023-04-04T16:17:58.123Z,1.55
2023-04-04T16:20:27.000Z,0.80
2023-04-04T16:22:54.799Z,1.38
2023-04-04T16:25:21.640Z,0.77
2023-04-04T16:27:47.806Z,1.02
2023-04-04T16:30:14.200Z,0.80
2023-04-04T16:32:45.924Z,1.20
2023-04-04T16:35:11.907Z,1.45
2023-04-04T16:37:37.808Z,0.88
2023-04-04T16:40:04.509Z,1.40
2023-04-04T16:42:30.909Z,1.10
2023-04-04T16:44:56.740Z,1.25
2023-04-04T16:47:26.822Z,1.00
2023-04-04T16:49:54.438Z,1.00
2023-04-04T16:52:20.399Z,1.05
2023-04-04T16:54:46.273Z,0.98
2023-04-04T16:57:12.263Z,1.00
2023-04-04T16:59:38.134Z,0.90
2023-04-04T17:02:07.692Z,1.05
2023-04-04T17:04:33.748Z,1.08
2023-04-04T17:06:59.853Z,1.55
2023-04-04T17:09:25.962Z,2.63
2023-04-04T17:11:52.907Z,1.40
2023-04-04T17:14:18.698Z,1.30
2023-04-04T17:16:44.832Z,1.13
2023-04-04T17:19:11.037Z,0.95
2023-04-04T17:21:36.984Z,1.20
2023-04-04T17:24:02.914Z,1.30
2023-04-04T17:26:28.938Z,1.80
2023-04-04T17:28:55.304Z,1.50
2023-04-04T17:31:21.424Z,1.38
2023-04-04T17:33:47.424Z,1.63
2023-04-04T17:36:14.706Z,1.27
2023-04-04T17:38:40.860Z,1.20
2023-04-04T17:41:07.511Z,1.23
2023-04-04T17:43:33.761Z,1.15
2023-04-04T17:46:18.540Z,1.67
2023-04-04T17:48:44.692Z,1.13
2023-04-04T17:51:10.950Z,1.50
2023-04-04T17:53:36.948Z,0.70
2023-04-04T17:56:02.872Z,1.08
2023-04-04T17:58:28.901Z,1.40
2023-04-04T18:00:56.956Z,1.52
2023-04-04T18:03:23.199Z,1.38
2023-04-04T18:05:49.389Z,1.45
2023-04-04T18:08:15.250Z,1.48
2023-04-04T18:10:41.261Z,1.40
2023-04-04T18:13:07.882Z,1.60
2023-04-04T18:15:34.761Z,1.50
2023-04-04T18:18:01.568Z,1.90
2023-04-04T18:20:34.633Z,1.52
2023-04-04T18:23:02.973Z,1.48
2023-04-04T18:25:31.123Z,1.85
2023-04-04T18:27:56.895Z,1.85
2023-04-04T18:30:23.687Z,1.20
2023-04-04T18:32:50.016Z,1.50
2023-04-04T18:35:16.273Z,1.58
2023-04-04T18:37:42.064Z,1.50
2023-04-04T18:40:09.077Z,1.85
2023-04-04T18:42:35.065Z,1.42
2023-04-04T18:45:01.874Z,1.30
2023-04-04T18:47:27.690Z,2.35
2023-04-04T18:49:53.656Z,1.60
2023-04-04T18:52:19.839Z,1.63
2023-04-04T18:54:46.333Z,2.08
2023-04-04T18:57:14.138Z,2.63
2023-04-04T18:59:40.377Z,2.10
2023-04-04T19:02:06.164Z,2.35
2023-04-04T19:04:34.105Z,2.78
2023-04-04T19:07:02.655Z,1.98
2023-04-04T19:09:30.236Z,2.15
2023-04-04T19:11:56.152Z,2.13
2023-04-04T19:14:22.310Z,2.55
2023-04-04T19:16:48.194Z,2.50
2023-04-04T19:19:14.585Z,2.00
2023-04-04T19:21:40.840Z,2.17
2023-04-04T19:24:07.538Z,1.98
2023-04-04T19:26:33.700Z,2.10
2023-04-04T19:28:59.712Z,2.45
2023-04-04T19:31:29.514Z,2.22
2023-04-04T19:33:55.815Z,2.47
2023-04-04T19:36:22.588Z,2.65
2023-04-04T19:38:48.876Z,1.92
2023-04-04T19:41:17.907Z,1.80
2023-04-04T19:43:46.490Z,1.30
2023-04-04T19:46:13.840Z,2.03
2023-04-04T19:48:50.252Z,1.75
2023-04-04T19:51:21.792Z,2.45
2023-04-04T19:53:57.631Z,2.20
2023-04-04T19:56:25.594Z,2.30
2023-04-04T19:58:54.231Z,1.52
2023-04-04T20:01:22.178Z,1.92
2023-04-04T20:03:48.479Z,1.65
2023-04-04T20:06:14.317Z,1.70
2023-04-04T20:08:46.144Z,1.83
2023-04-04T20:11:12.281Z,1.52
2023-04-04T20:13:38.826Z,2.08
2023-04-04T20:16:09.226Z,1.92
2023-04-04T20:18:36.152Z,1.90
2023-04-04T20:21:04.258Z,1.33
2023-04-04T20:23:31.406Z,2.15
2023-04-04T20:26:03.633Z,1.90
2023-04-04T20:28:30.750Z,2.10
2023-04-04T20:30:57.633Z,2.58
2023-04-04T20:33:33.721Z,2.00
2023-04-04T20:36:05.335Z,2.17
2023-04-04T20:38:31.337Z,1.90
2023-04-04T20:40:57.465Z,2.00
2023-04-04T20:43:23.510Z,1.60
2023-04-04T20:45:50.117Z,2.03
2023-04-04T20:48:33.053Z,2.15
2023-04-04T20:50:58.885Z,2.10
2023-04-04T20:53:26.852Z,2.22
2023-04-04T20:55:54.358Z,1.85
2023-04-04T20:58:20.160Z,2.28
2023-04-04T21:00:45.923Z,2.08
2023-04-04T21:03:26.143Z,2.05
2023-04-04T21:05:53.430Z,2.13
2023-04-04T21:08:19.191Z,2.97
2023-04-04T21:10:52.167Z,2.20
2023-04-04T21:13:25.777Z,1.58
2023-04-04T21:15:53.732Z,2.40
2023-04-04T21:18:22.217Z,1.83
2023-04-04T21:20:48.957Z,2.40
2023-04-04T21:23:26.905Z,1.77
2023-04-04T21:25:56.703Z,1.85
2023-04-04T21:28:24.918Z,2.63
2023-04-04T21:30:50.693Z,2.28
2023-04-04T21:33:17.032Z,2.13
2023-04-04T21:35:44.909Z,2.45
2023-04-04T21:38:22.625Z,2.13
2023-04-04T21:40:48.531Z,2.00
2023-04-04T21:43:14.387Z,1.95
2023-04-04T21:45:43.615Z,2.38
2023-04-04T21:48:09.480Z,1.63
2023-04-04T21:50:35.353Z,2.17
2023-04-04T21:53:01.097Z,2.30
2023-04-04T21:55:26.776Z,1.83
2023-04-04T21:57:52.482Z,2.30
2023-04-04T22:00:18.807Z,2.20
2023-04-04T22:02:44.732Z,1.90
2023-04-04T22:05:10.633Z,2.40
2023-04-04T22:07:36.656Z,2.43
2023-04-04T22:10:04.142Z,2.38
2023-04-04T22:12:31.720Z,2.25
2023-04-04T22:14:58.339Z,2.80
2023-04-04T22:17:24.296Z,2.80
2023-04-04T22:19:59.446Z,2.50
2023-04-04T22:22:30.683Z,2.50
2023-04-04T22:25:02.930Z,2.20
2023-04-04T22:27:34.417Z,2.63
2023-04-04T22:30:00.644Z,2.60
2023-04-04T22:32:27.980Z,1.87
2023-04-04T22:34:53.721Z,2.40
2023-04-04T22:37:20.928Z,1.90
2023-04-04T22:39:49.258Z,2.33
2023-04-04T22:42:15.593Z,2.50
2023-04-04T22:44:41.353Z,2.40
2023-04-04T22:47:07.330Z,2.50
2023-04-04T22:49:37.122Z,2.53
2023-04-04T22:52:10.552Z,2.37
2023-04-04T22:54:36.279Z,2.37
2023-04-04T22:57:02.025Z,2.43
2023-04-04T22:59:27.895Z,3.70
2023-04-04T23:01:54.343Z,2.67
2023-04-04T23:04:20.692Z,2.77
2023-04-04T23:06:46.480Z,2.50
2023-04-04T23:09:12.353Z,3.17
2023-04-04T23:11:38.383Z,2.90
2023-04-04T23:14:08.032Z,2.70
2023-04-04T23:16:34.889Z,2.50
2023-04-04T23:19:00.981Z,2.60
2023-04-04T23:21:28.208Z,3.23
2023-04-04T23:23:55.738Z,2.77
2023-04-04T23:26:21.817Z,2.50
2023-04-04T23:28:47.666Z,2.30
2023-04-04T23:31:14.184Z,2.37
2023-04-04T23:33:40.154Z,2.27
2023-04-04T23:36:06.287Z,2.67
2023-04-04T23:38:32.065Z,3.43
2023-04-04T23:40:57.895Z,2.43
2023-04-04T23:43:23.642Z,2.40
2023-04-04T23:45:50.430Z,2.63
2023-04-04T23:48:16.204Z,3.00
2023-04-04T23:50:42.338Z,2.40
2023-04-04T23:53:08.296Z,2.73
2023-04-04T23:55:34.031Z,2.33
2023-04-04T23:58:01.783Z,3.10
